createdAt,value
2017-01-10T00:00:03.442Z,1009.4
2017-01-10T00:05:03.309Z,1009.3
2017-01-10T00:10:03.133Z,1009.32
2017-01-10T00:15:02.943Z,1009.1
2017-01-10T00:20:03.596Z,1009.15
2017-01-10T00:25:03.586Z,1009.06
2017-01-10T00:30:03.350Z,1008.99
2017-01-10T00:35:03.132Z,1008.84
2017-01-10T00:40:03.182Z,1008.84
2017-01-10T00:45:03.001Z,1008.58
2017-01-10T00:50:02.929Z,1008.51
2017-01-10T00:55:02.777Z,1008.49
2017-01-10T01:00:02.702Z,1008.36
2017-01-10T01:05:03.493Z,1008.31
2017-01-10T01:10:03.410Z,1008.24
2017-01-10T01:15:03.319Z,1008.09
2017-01-10T01:20:03.334Z,1007.98
2017-01-10T01:25:03.169Z,1007.92
2017-01-10T01:30:03.096Z,1007.99
2017-01-10T01:35:02.883Z,1007.9
2017-01-10T01:40:02.928Z,1007.78
2017-01-10T01:45:02.705Z,1007.7
2017-01-10T01:50:03.496Z,1007.62
2017-01-10T01:55:03.242Z,1007.56
2017-01-10T02:00:02.729Z,1007.7
2017-01-10T02:05:03.489Z,1007.32
2017-01-10T02:10:03.277Z,1007.13
2017-01-10T02:15:03.248Z,1007.05
2017-01-10T02:20:03.173Z,1007.16
2017-01-10T02:25:02.864Z,1007.11
2017-01-10T02:30:02.808Z,1006.99
2017-01-10T02:35:03.682Z,1007
2017-01-10T02:40:03.691Z,1006.96
2017-01-10T02:45:03.548Z,1006.9
2017-01-10T02:50:03.509Z,1006.76
2017-01-10T02:55:03.355Z,1006.74
2017-01-10T03:00:03.096Z,1006.8
2017-01-10T03:05:02.941Z,1006.66
2017-01-10T03:10:03.528Z,1006.62
2017-01-10T03:15:03.518Z,1006.41
2017-01-10T03:20:03.365Z,1006.44
2017-01-10T03:25:03.433Z,1006.29
2017-01-10T03:30:03.388Z,1006.25
2017-01-10T03:35:03.266Z,1006.13
2017-01-10T03:40:03.279Z,1006.06
2017-01-10T03:45:02.800Z,1005.99
2017-01-10T03:50:03.704Z,1006.02
2017-01-10T03:55:03.614Z,1005.89
2017-01-10T04:00:03.386Z,1005.85
2017-01-10T04:05:02.973Z,1005.79
2017-01-10T04:10:03.596Z,1005.76
2017-01-10T04:15:03.516Z,1005.72
2017-01-10T04:20:03.302Z,1005.71
2017-01-10T04:25:02.850Z,1005.67
2017-01-10T04:30:03.651Z,1005.64
2017-01-10T04:35:03.317Z,1005.68
2017-01-10T04:40:03.286Z,1005.66
2017-01-10T04:45:03.193Z,1005.54
2017-01-10T04:50:03.001Z,1005.61
2017-01-10T04:55:02.911Z,1005.62
2017-01-10T05:00:02.772Z,1005.65
2017-01-10T05:05:03.754Z,1005.65
2017-01-10T05:10:03.306Z,1005.63
2017-01-10T05:15:03.110Z,1005.61
2017-01-10T05:20:02.901Z,1005.7
2017-01-10T05:25:02.710Z,1005.83
2017-01-10T05:30:03.261Z,1005.86
2017-01-10T05:35:03.096Z,1005.96
2017-01-10T05:40:02.872Z,1006.01
2017-01-10T05:45:03.031Z,1006.03
2017-01-10T05:50:03.570Z,1006.03
2017-01-10T05:55:03.450Z,1006
2017-01-10T06:00:03.281Z,1006.07
2017-01-10T06:05:02.967Z,1006.13
2017-01-10T06:10:02.889Z,1006.31
2017-01-10T06:15:02.700Z,1006.3
2017-01-10T06:20:03.510Z,1006.31
2017-01-10T06:25:03.376Z,1006.33
2017-01-10T06:30:03.264Z,1006.44
2017-01-10T06:35:02.817Z,1006.37
2017-01-10T06:40:02.830Z,1006.51
2017-01-10T06:45:03.489Z,1006.61
2017-01-10T06:50:03.021Z,1006.67
2017-01-10T06:55:02.816Z,1006.79
2017-01-10T07:00:03.632Z,1006.73
2017-01-10T07:05:03.534Z,1006.77
2017-01-10T07:10:03.434Z,1006.78
2017-01-10T07:15:03.304Z,1006.88
2017-01-10T07:20:03.218Z,1006.9
2017-01-10T07:25:02.992Z,1006.84
2017-01-10T07:30:02.907Z,1006.9
2017-01-10T07:35:03.653Z,1006.95
2017-01-10T07:40:03.537Z,1007.01
2017-01-10T07:45:03.457Z,1007.17
2017-01-10T07:50:03.111Z,1007.32
2017-01-10T07:55:02.707Z,1007.44
2017-01-10T08:00:03.492Z,1007.46
2017-01-10T08:05:03.289Z,1007.48
2017-01-10T08:10:02.884Z,1007.61
2017-01-10T08:15:02.718Z,1007.54
2017-01-10T08:20:03.513Z,1007.57
2017-01-10T08:25:03.193Z,1007.61
2017-01-10T08:30:02.836Z,1007.68
2017-01-10T08:35:03.481Z,1007.68
2017-01-10T08:40:03.120Z,1007.79
2017-01-10T08:45:03.662Z,1007.86
2017-01-10T08:50:03.500Z,1007.82
2017-01-10T08:55:03.325Z,1007.88
2017-01-10T09:00:03.201Z,1007.95
2017-01-10T09:05:03.042Z,1007.96
2017-01-10T09:10:02.638Z,1008.04
2017-01-10T09:15:03.196Z,1008.11
2017-01-10T09:20:02.757Z,1008.05
2017-01-10T09:25:03.606Z,1008.01
2017-01-10T09:30:03.346Z,1008
2017-01-10T09:35:03.043Z,1008.04
2017-01-10T09:40:02.885Z,1008.04
2017-01-10T09:45:02.719Z,1008.13
2017-01-10T09:50:03.499Z,1008.18
2017-01-10T09:55:03.297Z,1008.21
2017-01-10T10:00:02.907Z,1008.3
2017-01-10T10:05:02.794Z,1008.18
2017-01-10T10:10:02.787Z,1008.25
2017-01-10T10:15:03.506Z,1008.38
2017-01-10T10:20:03.512Z,1008.43
2017-01-10T10:25:02.692Z,1008.32
2017-01-10T10:30:02.645Z,1008.33
2017-01-10T10:35:02.828Z,1008.29
2017-01-10T10:40:03.417Z,1008.41
2017-01-10T10:45:03.500Z,1008.36
2017-01-10T10:50:02.760Z,1008.5
2017-01-10T10:55:04.796Z,1008.52
2017-01-10T11:00:03.099Z,1008.38
2017-01-10T11:05:02.956Z,1008.41
2017-01-10T11:10:02.952Z,1008.47
2017-01-10T11:15:03.508Z,1008.44
2017-01-10T11:20:03.381Z,1008.4
2017-01-10T11:25:03.146Z,1008.52
2017-01-10T11:30:02.674Z,1008.55
2017-01-10T11:35:03.294Z,1008.56
2017-01-10T11:40:02.717Z,1008.5
2017-01-10T11:45:02.880Z,1008.52
2017-01-10T11:50:03.071Z,1008.41
2017-01-10T11:55:03.346Z,1008.54
2017-01-10T12:00:03.135Z,1008.57
2017-01-10T12:05:03.160Z,1008.53
2017-01-10T12:10:02.696Z,1008.56
2017-01-10T12:15:03.297Z,1008.51
2017-01-10T12:20:02.998Z,1008.54
2017-01-10T12:25:03.018Z,1008.52
2017-01-10T12:30:03.548Z,1008.56
2017-01-10T12:35:03.264Z,1008.57
2017-01-10T12:40:02.995Z,1008.56
2017-01-10T12:45:03.347Z,1008.55
2017-01-10T12:50:03.114Z,1008.57
2017-01-10T12:55:02.925Z,1008.43
2017-01-10T13:00:03.403Z,1008.47
2017-01-10T13:05:03.178Z,1008.58
2017-01-10T13:10:02.809Z,1008.56
2017-01-10T13:15:03.226Z,1008.66
2017-01-10T13:20:03.303Z,1008.79
2017-01-10T13:25:03.615Z,1008.85
2017-01-10T13:30:03.010Z,1008.86
2017-01-10T13:35:03.610Z,1008.84
2017-01-10T13:40:03.153Z,1008.91
2017-01-10T13:45:03.605Z,1009
2017-01-10T13:50:03.317Z,1009.06
2017-01-10T13:55:02.791Z,1009.15
2017-01-10T14:00:03.469Z,1009.15
2017-01-10T14:05:03.084Z,1009.17
2017-01-10T14:10:03.541Z,1009.17
2017-01-10T14:15:02.988Z,1009.21
2017-01-10T14:20:03.488Z,1009.34
2017-01-10T14:25:03.357Z,1009.33
2017-01-10T14:30:02.945Z,1009.38
2017-01-10T14:35:03.271Z,1009.44
2017-01-10T14:40:03.639Z,1009.43
2017-01-10T14:45:03.188Z,1009.48
2017-01-10T14:50:02.869Z,1009.39
2017-01-10T14:55:03.425Z,1009.47
2017-01-10T15:00:02.795Z,1009.49
2017-01-10T15:05:03.097Z,1009.44
2017-01-10T15:10:02.826Z,1009.61
2017-01-10T15:15:03.463Z,1009.64
2017-01-10T15:20:03.190Z,1009.81
2017-01-10T15:25:02.735Z,1009.92
2017-01-10T15:30:03.360Z,1010.03
2017-01-10T15:35:02.979Z,1010.04
2017-01-10T15:40:02.743Z,1010.04
2017-01-10T15:45:03.444Z,1010.16
2017-01-10T15:50:03.030Z,1010.24
2017-01-10T15:55:03.544Z,1010.22
2017-01-10T16:00:03.344Z,1010.34
2017-01-10T16:05:02.960Z,1010.43
2017-01-10T16:10:02.684Z,1010.54
2017-01-10T16:15:03.037Z,1010.56
2017-01-10T16:20:03.445Z,1010.59
2017-01-10T16:25:03.019Z,1010.58
2017-01-10T16:30:02.770Z,1010.59
2017-01-10T16:35:02.916Z,1010.55
2017-01-10T16:40:02.822Z,1010.55
2017-01-10T16:45:03.381Z,1010.59
2017-01-10T16:50:03.537Z,1010.67
2017-01-10T16:55:03.037Z,1010.76
2017-01-10T17:00:03.692Z,1010.92
2017-01-10T17:05:03.421Z,1010.89
2017-01-10T17:10:02.992Z,1010.85
2017-01-10T17:15:03.326Z,1010.91
2017-01-10T17:20:02.844Z,1010.87
2017-01-10T17:25:03.281Z,1010.87
2017-01-10T17:30:02.702Z,1010.93
2017-01-10T17:35:03.425Z,1011.05
2017-01-10T17:40:03.023Z,1011.13
2017-01-10T17:45:03.560Z,1011.2
2017-01-10T17:50:02.748Z,1011.14
2017-01-10T17:55:03.329Z,1011.21
2017-01-10T18:00:02.821Z,1011.24
2017-01-10T18:05:03.317Z,1011.3
2017-01-10T18:10:02.961Z,1011.36
2017-01-10T18:15:03.253Z,1011.31
2017-01-10T18:20:03.646Z,1011.27
2017-01-10T18:25:03.163Z,1011.24
2017-01-10T18:30:03.480Z,1011.27
2017-01-10T18:35:03.630Z,1011.28
2017-01-10T18:40:03.408Z,1011.23
2017-01-10T18:45:02.854Z,1011.28
2017-01-10T18:50:03.488Z,1011.36
2017-01-10T18:55:03.457Z,1011.36
2017-01-10T19:00:03.332Z,1011.37
2017-01-10T19:05:03.414Z,1011.44
2017-01-10T19:10:03.140Z,1011.4
2017-01-10T19:15:02.774Z,1011.42
2017-01-10T19:20:03.115Z,1011.34
2017-01-10T19:25:03.184Z,1011.37
2017-01-10T19:30:03.514Z,1011.31
2017-01-10T19:35:03.520Z,1011.27
2017-01-10T19:40:03.653Z,1011.32
2017-01-10T19:45:03.333Z,1011.32
2017-01-10T19:50:02.777Z,1011.37
2017-01-10T19:55:03.449Z,1011.41
2017-01-10T20:00:03.602Z,1011.32
2017-01-10T20:05:02.790Z,1011.39
2017-01-10T20:10:03.832Z,1011.5
2017-01-10T20:15:03.232Z,1011.58
2017-01-10T20:20:02.677Z,1011.61
2017-01-10T20:25:03.656Z,1011.61
2017-01-10T20:30:03.648Z,1011.53
2017-01-10T20:35:03.496Z,1011.5
2017-01-10T20:40:03.181Z,1011.44
2017-01-10T20:45:03.004Z,1011.39
2017-01-10T20:50:02.801Z,1011.37
2017-01-10T20:55:02.753Z,1011.48
2017-01-10T21:00:03.472Z,1011.47
2017-01-10T21:05:03.432Z,1011.49
2017-01-10T21:10:03.514Z,1011.69
2017-01-10T21:15:03.397Z,1011.68
2017-01-10T21:20:02.957Z,1011.76
2017-01-10T21:25:02.898Z,1011.79
2017-01-10T21:30:02.686Z,1011.92
2017-01-10T21:35:03.529Z,1011.92
2017-01-10T21:40:03.278Z,1011.99
2017-01-10T21:45:03.186Z,1011.95
2017-01-10T21:50:02.839Z,1011.81
2017-01-10T21:55:03.529Z,1011.79
2017-01-10T22:00:03.233Z,1011.79
2017-01-10T22:05:02.971Z,1011.91
2017-01-10T22:10:03.523Z,1011.96
2017-01-10T22:15:03.308Z,1011.97
2017-01-10T22:20:02.843Z,1012.03
2017-01-10T22:25:02.684Z,1011.99
2017-01-10T22:30:03.331Z,1011.74
2017-01-10T22:35:03.083Z,1011.55
2017-01-10T22:40:02.813Z,1011.58
2017-01-10T22:45:03.688Z,1011.6
2017-01-10T22:50:03.360Z,1011.44
2017-01-10T22:55:02.915Z,1011.36
2017-01-10T23:00:02.672Z,1011.38
2017-01-10T23:05:03.426Z,1011.44
2017-01-10T23:10:03.382Z,1011.5
2017-01-10T23:15:03.164Z,1011.47
2017-01-10T23:20:02.931Z,1011.63
2017-01-10T23:25:02.641Z,1011.42
2017-01-10T23:30:03.379Z,1011.51
2017-01-10T23:35:03.182Z,1011.53
2017-01-10T23:40:02.721Z,1011.3
2017-01-10T23:45:03.486Z,1011.44
2017-01-10T23:50:03.022Z,1011.44
2017-01-10T23:55:02.696Z,1011.35
